WAT64 YSSY-ZSPD
Flight info
| Callsign | WAT64 |
|---|---|
| Flight time | 2h 31m |
| Altitude | 30000 |
| Route | RIC H530 LASUD Q293 AKUMI Q147 VOMPA Q499 NONUM DCT MEMIG/N0506F320 A216 HOOVR DCT LADSS/N0496F340 DCT PAKDO G339 AGIKA Z41 POTET A593 LAMEN/K0909F340 A593 DUMET DUM81A |
| Aircraft | B77L/H-SDE1E2E3FGHIJ2J3J4J5M1RWXY/LB1D1 |
Departure
| Time | 2026-05-06 19:16 |
|---|---|
| Airport | Sydney Kingsford Smith International Airport (YSSY) |
Arrival
| Time | 2026-05-06 21:47 |
|---|---|
| Airport | Shanghai Pudong International Airport (ZSPD) |
| Time | Latitude | Longitude | Altitude | Speed | Heading |
|---|---|---|---|---|---|
| 2026-05-06 18:50 | -33.93176 | 151.16794 | 30 ft | 0 kts | 257° |
| 2026-05-06 19:05 | -33.93176 | 151.16795 | 25 ft | 1 kts | 257° |
| 2026-05-06 19:05 | -33.93170 | 151.16824 | 27 ft | 4 kts | 257° |
| 2026-05-06 19:06 | -33.93164 | 151.16855 | 31 ft | 4 kts | 254° |
| 2026-05-06 19:06 | -33.93155 | 151.16885 | 31 ft | 4 kts | 241° |
| 2026-05-06 19:06 | -33.93140 | 151.16911 | 30 ft | 4 kts | 220° |
| 2026-05-06 19:06 | -33.93118 | 151.16925 | 31 ft | 4 kts | 178° |
| 2026-05-06 19:07 | -33.93107 | 151.16923 | 30 ft | 1 kts | 168° |
| 2026-05-06 19:07 | -33.93106 | 151.16923 | 31 ft | 0 kts | 168° |
| 2026-05-06 19:09 | -33.93111 | 151.16925 | 25 ft | 1 kts | 167° |
| 2026-05-06 19:09 | -33.93124 | 151.16928 | 29 ft | 3 kts | 167° |
| 2026-05-06 19:09 | -33.93153 | 151.16936 | 28 ft | 5 kts | 167° |
| 2026-05-06 19:10 | -33.93198 | 151.16948 | 28 ft | 8 kts | 167° |
| 2026-05-06 19:10 | -33.93254 | 151.16968 | 28 ft | 9 kts | 151° |
| 2026-05-06 19:10 | -33.93303 | 151.17022 | 28 ft | 10 kts | 134° |
| 2026-05-06 19:10 | -33.93366 | 151.17066 | 28 ft | 11 kts | 160° |
| 2026-05-06 19:11 | -33.93448 | 151.17089 | 27 ft | 13 kts | 168° |
| 2026-05-06 19:11 | -33.93538 | 151.17112 | 28 ft | 14 kts | 168° |
| 2026-05-06 19:11 | -33.93635 | 151.17137 | 29 ft | 14 kts | 167° |
| 2026-05-06 19:11 | -33.93740 | 151.17163 | 24 ft | 17 kts | 168° |
| 2026-05-06 19:12 | -33.93864 | 151.17196 | 23 ft | 19 kts | 168° |
| 2026-05-06 19:12 | -33.93959 | 151.17275 | 26 ft | 18 kts | 86° |
| 2026-05-06 19:12 | -33.93926 | 151.17424 | 26 ft | 19 kts | 74° |
| 2026-05-06 19:12 | -33.93891 | 151.17573 | 26 ft | 19 kts | 74° |
| 2026-05-06 19:13 | -33.93856 | 151.17724 | 25 ft | 19 kts | 73° |
| 2026-05-06 19:13 | -33.93819 | 151.17875 | 30 ft | 19 kts | 74° |
| 2026-05-06 19:13 | -33.93782 | 151.18026 | 35 ft | 19 kts | 74° |
| 2026-05-06 19:13 | -33.93747 | 151.18177 | 35 ft | 19 kts | 74° |
| 2026-05-06 19:14 | -33.93711 | 151.18329 | 35 ft | 19 kts | 73° |
| 2026-05-06 19:14 | -33.93675 | 151.18480 | 35 ft | 19 kts | 75° |
| 2026-05-06 19:14 | -33.93640 | 151.18632 | 35 ft | 19 kts | 74° |
| 2026-05-06 19:14 | -33.93605 | 151.18782 | 35 ft | 17 kts | 75° |
| 2026-05-06 19:15 | -33.93618 | 151.18920 | 30 ft | 18 kts | 131° |
| 2026-05-06 19:15 | -33.93741 | 151.18963 | 29 ft | 19 kts | 200° |
| 2026-05-06 19:15 | -33.93783 | 151.18869 | 30 ft | 7 kts | 252° |
| 2026-05-06 19:15 | -33.93818 | 151.18725 | 30 ft | 42 kts | 254° |
| 2026-05-06 19:16 | -33.93971 | 151.18075 | 30 ft | 120 kts | 254° |
| 2026-05-06 19:16 | -33.94261 | 151.16844 | 144 ft | 174 kts | 253° |
| 2026-05-06 19:16 | -33.94290 | 151.15432 | 1007 ft | 175 kts | 291° |
| 2026-05-06 19:16 | -33.93486 | 151.14319 | 1805 ft | 176 kts | 316° |
| 2026-05-06 19:17 | -33.92520 | 151.13425 | 2413 ft | 178 kts | 313° |
| 2026-05-06 19:17 | -33.91496 | 151.12431 | 2457 ft | 199 kts | 313° |
| 2026-05-06 19:17 | -33.90395 | 151.11303 | 2683 ft | 217 kts | 312° |
| 2026-05-06 19:17 | -33.89216 | 151.10078 | 3046 ft | 229 kts | 312° |
| 2026-05-06 19:18 | -33.87965 | 151.08776 | 3365 ft | 245 kts | 311° |
| 2026-05-06 19:18 | -33.86660 | 151.07397 | 3851 ft | 255 kts | 312° |
| 2026-05-06 19:18 | -33.85314 | 151.05952 | 4375 ft | 264 kts | 314° |
| 2026-05-06 19:18 | -33.83939 | 151.04463 | 5015 ft | 268 kts | 314° |
| 2026-05-06 19:19 | -33.82563 | 151.02970 | 5838 ft | 264 kts | 314° |
| 2026-05-06 19:19 | -33.81207 | 151.01481 | 6526 ft | 265 kts | 314° |
| 2026-05-06 19:19 | -33.79841 | 150.99970 | 7151 ft | 268 kts | 314° |
| 2026-05-06 19:19 | -33.78463 | 150.98443 | 7795 ft | 270 kts | 314° |
| 2026-05-06 19:20 | -33.77081 | 150.96908 | 8470 ft | 271 kts | 314° |
| 2026-05-06 19:20 | -33.75694 | 150.95366 | 9125 ft | 273 kts | 315° |
| 2026-05-06 19:20 | -33.74296 | 150.93811 | 9773 ft | 275 kts | 315° |
| 2026-05-06 19:20 | -33.72888 | 150.92246 | 10316 ft | 279 kts | 315° |
| 2026-05-06 19:21 | -33.71417 | 150.90608 | 10499 ft | 298 kts | 315° |
| 2026-05-06 19:21 | -33.69846 | 150.88859 | 10659 ft | 318 kts | 315° |
| 2026-05-06 19:21 | -33.68179 | 150.87004 | 10817 ft | 337 kts | 315° |
| 2026-05-06 19:21 | -33.66539 | 150.85183 | 11180 ft | 348 kts | 315° |
| 2026-05-06 19:22 | -33.64747 | 150.83196 | 11731 ft | 355 kts | 315° |
| 2026-05-06 19:22 | -33.62928 | 150.81179 | 12426 ft | 357 kts | 315° |
| 2026-05-06 19:22 | -33.61098 | 150.79151 | 13193 ft | 359 kts | 315° |
| 2026-05-06 19:22 | -33.59264 | 150.77115 | 13907 ft | 360 kts | 314° |
| 2026-05-06 19:23 | -33.57444 | 150.75034 | 14519 ft | 362 kts | 314° |
| 2026-05-06 19:23 | -33.55618 | 150.72917 | 15039 ft | 368 kts | 313° |
| 2026-05-06 19:23 | -33.53769 | 150.70767 | 15613 ft | 371 kts | 313° |
| 2026-05-06 19:23 | -33.51916 | 150.68617 | 16165 ft | 375 kts | 313° |
| 2026-05-06 19:24 | -33.50037 | 150.66445 | 16787 ft | 377 kts | 313° |
| 2026-05-06 19:24 | -33.48141 | 150.64256 | 17384 ft | 379 kts | 313° |
| 2026-05-06 19:24 | -33.46235 | 150.62053 | 17979 ft | 382 kts | 313° |
| 2026-05-06 19:24 | -33.44315 | 150.59847 | 18578 ft | 383 kts | 313° |
| 2026-05-06 19:25 | -33.42387 | 150.57631 | 19106 ft | 385 kts | 313° |
| 2026-05-06 19:25 | -33.40453 | 150.55408 | 19668 ft | 387 kts | 313° |
| 2026-05-06 19:25 | -33.38508 | 150.53170 | 20199 ft | 388 kts | 313° |
| 2026-05-06 19:25 | -33.36555 | 150.50925 | 20725 ft | 390 kts | 313° |
| 2026-05-06 19:26 | -33.34594 | 150.48669 | 21246 ft | 392 kts | 313° |
| 2026-05-06 19:26 | -33.32623 | 150.46401 | 21745 ft | 394 kts | 313° |
| 2026-05-06 19:26 | -33.30639 | 150.44120 | 22173 ft | 398 kts | 313° |
| 2026-05-06 19:26 | -33.28634 | 150.41814 | 22623 ft | 401 kts | 314° |
| 2026-05-06 19:27 | -33.26621 | 150.39502 | 23160 ft | 402 kts | 313° |
| 2026-05-06 19:27 | -33.24600 | 150.37180 | 23659 ft | 404 kts | 313° |
| 2026-05-06 19:27 | -33.22574 | 150.34852 | 24032 ft | 404 kts | 313° |
| 2026-05-06 19:27 | -33.20543 | 150.32518 | 24356 ft | 407 kts | 313° |
| 2026-05-06 19:28 | -33.18490 | 150.30174 | 24733 ft | 409 kts | 313° |
| 2026-05-06 19:28 | -33.16435 | 150.27827 | 25210 ft | 409 kts | 313° |
| 2026-05-06 19:28 | -33.14378 | 150.25474 | 25633 ft | 410 kts | 314° |
| 2026-05-06 19:28 | -33.12317 | 150.23125 | 26131 ft | 410 kts | 313° |
| 2026-05-06 19:29 | -33.10248 | 150.20762 | 26462 ft | 413 kts | 313° |
| 2026-05-06 19:29 | -33.08190 | 150.18410 | 26798 ft | 416 kts | 313° |
| 2026-05-06 19:29 | -33.06096 | 150.16022 | 27204 ft | 417 kts | 313° |
| 2026-05-06 19:29 | -33.04002 | 150.13636 | 27613 ft | 418 kts | 313° |
| 2026-05-06 19:30 | -33.01894 | 150.11235 | 28010 ft | 419 kts | 313° |
| 2026-05-06 19:30 | -32.99788 | 150.08836 | 28393 ft | 420 kts | 313° |
| 2026-05-06 19:30 | -32.97675 | 150.06432 | 28728 ft | 421 kts | 313° |
| 2026-05-06 19:30 | -32.95549 | 150.04014 | 29036 ft | 423 kts | 313° |
| 2026-05-06 19:31 | -32.93414 | 150.01590 | 29361 ft | 425 kts | 313° |
| 2026-05-06 19:31 | -32.91275 | 149.99163 | 29665 ft | 426 kts | 313° |
| 2026-05-06 19:31 | -32.86965 | 149.94276 | 30021 ft | 432 kts | 313° |
| 2026-05-06 19:32 | -32.82615 | 149.89349 | 30105 ft | 433 kts | 313° |
| 2026-05-06 19:32 | -32.78258 | 149.84420 | 30117 ft | 432 kts | 313° |
| 2026-05-06 19:33 | -32.73911 | 149.79508 | 30120 ft | 431 kts | 313° |
| 2026-05-06 19:33 | -32.69575 | 149.74605 | 30121 ft | 430 kts | 313° |
| 2026-05-06 19:34 | -32.65244 | 149.69711 | 30133 ft | 430 kts | 313° |
| 2026-05-06 19:34 | -32.60909 | 149.64819 | 30124 ft | 430 kts | 313° |
| 2026-05-06 19:35 | -32.56586 | 149.59916 | 30134 ft | 429 kts | 311° |
| 2026-05-06 19:35 | -32.52745 | 149.54553 | 30114 ft | 427 kts | 306° |
| 2026-05-06 19:36 | -32.49002 | 149.49090 | 30130 ft | 427 kts | 306° |
| 2026-05-06 19:36 | -32.45234 | 149.43640 | 30148 ft | 428 kts | 307° |
| 2026-05-06 19:37 | -32.41460 | 149.38187 | 30139 ft | 429 kts | 307° |
| 2026-05-06 19:37 | -32.30465 | 149.22325 | 30161 ft | 430 kts | 307° |
| 2026-05-06 19:38 | -32.12743 | 148.96924 | 30114 ft | 431 kts | 307° |
| 2026-05-06 19:38 | -32.03822 | 148.87604 | 30176 ft | 441 kts | 328° |
| 2026-05-06 19:38 | -31.91698 | 148.83995 | 30230 ft | 454 kts | 342° |
| 2026-05-06 19:39 | -31.70891 | 148.79037 | 30188 ft | 457 kts | 341° |
| 2026-05-06 19:39 | -31.45911 | 148.73008 | 30170 ft | 458 kts | 341° |
| 2026-05-06 19:40 | -31.20909 | 148.67008 | 30184 ft | 459 kts | 341° |
| 2026-05-06 19:40 | -30.95839 | 148.61030 | 30177 ft | 460 kts | 341° |
| 2026-05-06 19:41 | -30.70739 | 148.55076 | 30152 ft | 460 kts | 342° |
| 2026-05-06 19:41 | -30.45646 | 148.49156 | 30172 ft | 460 kts | 342° |
| 2026-05-06 19:42 | -30.20687 | 148.43298 | 30203 ft | 461 kts | 342° |
| 2026-05-06 19:42 | -29.95517 | 148.37422 | 30202 ft | 462 kts | 342° |
| 2026-05-06 19:43 | -29.70240 | 148.31550 | 30157 ft | 464 kts | 342° |
| 2026-05-06 19:43 | -29.44901 | 148.25695 | 30175 ft | 463 kts | 342° |
| 2026-05-06 19:44 | -29.19635 | 148.19884 | 30193 ft | 464 kts | 342° |
| 2026-05-06 19:44 | -28.94310 | 148.14089 | 30189 ft | 464 kts | 343° |
| 2026-05-06 19:45 | -28.68928 | 148.08306 | 30185 ft | 466 kts | 343° |
| 2026-05-06 19:45 | -28.43480 | 148.02537 | 30183 ft | 466 kts | 343° |
| 2026-05-06 19:46 | -28.18015 | 147.96792 | 30185 ft | 466 kts | 342° |
| 2026-05-06 19:46 | -27.92583 | 147.91081 | 30185 ft | 465 kts | 342° |
| 2026-05-06 19:47 | -27.67304 | 147.85435 | 30186 ft | 461 kts | 341° |
| 2026-05-06 19:47 | -27.42269 | 147.79868 | 30144 ft | 456 kts | 340° |
| 2026-05-06 19:48 | -27.17556 | 147.74397 | 30114 ft | 450 kts | 340° |
| 2026-05-06 19:48 | -26.93119 | 147.69009 | 30110 ft | 445 kts | 340° |
| 2026-05-06 19:49 | -26.68985 | 147.63714 | 30178 ft | 440 kts | 339° |
| 2026-05-06 19:49 | -26.45126 | 147.58500 | 30188 ft | 440 kts | 339° |
| 2026-05-06 19:50 | -26.21034 | 147.53260 | 30160 ft | 440 kts | 339° |
| 2026-05-06 19:50 | -25.97013 | 147.48054 | 30152 ft | 440 kts | 340° |
| 2026-05-06 19:51 | -25.72936 | 147.42857 | 30127 ft | 444 kts | 341° |
| 2026-05-06 19:51 | -25.60709 | 147.40225 | 30263 ft | 452 kts | 341° |
| 2026-05-06 19:51 | -25.35801 | 147.34892 | 30144 ft | 461 kts | 341° |
| 2026-05-06 19:52 | -24.84726 | 147.30771 | 30072 ft | 453 kts | 347° |
| 2026-05-06 19:52 | -24.33782 | 147.28643 | 30154 ft | 468 kts | 349° |
| 2026-05-06 19:53 | -23.80954 | 147.26541 | 30048 ft | 474 kts | 349° |
| 2026-05-06 19:53 | -23.29067 | 147.24470 | 30071 ft | 464 kts | 348° |
| 2026-05-06 19:54 | -22.76495 | 147.22396 | 30109 ft | 482 kts | 349° |
| 2026-05-06 19:54 | -22.23121 | 147.20315 | 29927 ft | 471 kts | 350° |
| 2026-05-06 19:55 | -21.96881 | 147.19290 | 30060 ft | 474 kts | 350° |
| 2026-05-06 19:55 | -21.70213 | 147.18245 | 30137 ft | 484 kts | 350° |
| 2026-05-06 19:55 | -21.15656 | 147.16142 | 30003 ft | 489 kts | 350° |
| 2026-05-06 19:56 | -20.88762 | 147.15106 | 29945 ft | 478 kts | 350° |
| 2026-05-06 19:56 | -20.62735 | 147.12782 | 29961 ft | 442 kts | 337° |
| 2026-05-06 19:56 | -20.38331 | 147.05726 | 30276 ft | 472 kts | 339° |
| 2026-05-06 19:56 | -20.12265 | 146.98871 | 30120 ft | 486 kts | 339° |
| 2026-05-06 19:57 | -19.86220 | 146.91962 | 29863 ft | 476 kts | 340° |
| 2026-05-06 19:57 | -19.63270 | 146.81432 | 29937 ft | 444 kts | 327° |
| 2026-05-06 19:57 | -19.40607 | 146.69423 | 30160 ft | 467 kts | 328° |
| 2026-05-06 19:57 | -19.17059 | 146.57127 | 30040 ft | 473 kts | 328° |
| 2026-05-06 19:58 | -18.93624 | 146.44900 | 29898 ft | 464 kts | 329° |
| 2026-05-06 19:58 | -18.70799 | 146.33053 | 29922 ft | 453 kts | 329° |
| 2026-05-06 19:58 | -18.48113 | 146.21288 | 30069 ft | 459 kts | 329° |
| 2026-05-06 19:58 | -18.25213 | 146.09450 | 30101 ft | 469 kts | 329° |
| 2026-05-06 19:59 | -17.77914 | 145.85132 | 29764 ft | 459 kts | 329° |
| 2026-05-06 19:59 | -17.55500 | 145.73662 | 29936 ft | 453 kts | 330° |
| 2026-05-06 19:59 | -17.33582 | 145.62489 | 29738 ft | 425 kts | 330° |
| 2026-05-06 20:00 | -17.12894 | 145.51964 | 29823 ft | 404 kts | 329° |
| 2026-05-06 20:00 | -16.92946 | 145.41951 | 29909 ft | 395 kts | 335° |
| 2026-05-06 20:00 | -16.70174 | 145.40553 | 30060 ft | 412 kts | 354° |
| 2026-05-06 20:00 | -16.47213 | 145.39917 | 29899 ft | 404 kts | 353° |
| 2026-05-06 20:01 | -16.19353 | 145.39111 | 29882 ft | 392 kts | 353° |
| 2026-05-06 20:01 | -16.13935 | 145.38954 | 29970 ft | 386 kts | 353° |
| 2026-05-06 20:02 | -16.08577 | 145.38799 | 29980 ft | 384 kts | 353° |
| 2026-05-06 20:02 | -16.03174 | 145.38640 | 29620 ft | 396 kts | 353° |
| 2026-05-06 20:03 | -16.00386 | 145.38551 | 29395 ft | 406 kts | 352° |
| 2026-05-06 20:03 | -15.97568 | 145.38322 | 29424 ft | 406 kts | 349° |
| 2026-05-06 20:03 | -15.80866 | 145.36438 | 29548 ft | 417 kts | 349° |
| 2026-05-06 20:04 | -15.69238 | 145.35186 | 29693 ft | 423 kts | 349° |
| 2026-05-06 20:04 | -15.55357 | 145.33684 | 29749 ft | 429 kts | 350° |
| 2026-05-06 20:04 | -15.31407 | 145.31115 | 29909 ft | 436 kts | 350° |
| 2026-05-06 20:04 | -15.07138 | 145.28519 | 29989 ft | 441 kts | 350° |
| 2026-05-06 20:05 | -14.57975 | 145.23268 | 30071 ft | 446 kts | 351° |
| 2026-05-06 20:05 | -14.08454 | 145.18009 | 30073 ft | 448 kts | 351° |
| 2026-05-06 20:06 | -13.58789 | 145.12760 | 30122 ft | 448 kts | 351° |
| 2026-05-06 20:06 | -13.09160 | 145.07533 | 30148 ft | 448 kts | 351° |
| 2026-05-06 20:07 | -12.59540 | 145.02319 | 30160 ft | 449 kts | 351° |
| 2026-05-06 20:07 | -12.09748 | 144.97122 | 30200 ft | 450 kts | 352° |
| 2026-05-06 20:08 | -11.60567 | 144.89843 | 30222 ft | 450 kts | 349° |
| 2026-05-06 20:08 | -11.10948 | 144.82059 | 30260 ft | 451 kts | 349° |
| 2026-05-06 20:09 | -10.61290 | 144.74261 | 30345 ft | 450 kts | 349° |
| 2026-05-06 20:09 | -10.11850 | 144.66521 | 30506 ft | 447 kts | 350° |
| 2026-05-06 20:10 | -9.87566 | 144.62734 | 30400 ft | 434 kts | 350° |
| 2026-05-06 20:10 | -9.67771 | 144.59643 | 30409 ft | 421 kts | 350° |
| 2026-05-06 20:10 | -9.45030 | 144.56103 | 30462 ft | 408 kts | 350° |
| 2026-05-06 20:11 | -9.12848 | 144.51096 | 30392 ft | 406 kts | 351° |
| 2026-05-06 20:11 | -9.10032 | 144.50659 | 30286 ft | 411 kts | 350° |
| 2026-05-06 20:11 | -9.07209 | 144.50222 | 30353 ft | 411 kts | 351° |
| 2026-05-06 20:12 | -9.01558 | 144.49350 | 30367 ft | 409 kts | 351° |
| 2026-05-06 20:12 | -8.95967 | 144.48479 | 30533 ft | 401 kts | 351° |
| 2026-05-06 20:13 | -8.93222 | 144.48052 | 30669 ft | 396 kts | 351° |
| 2026-05-06 20:13 | -8.90518 | 144.47631 | 30809 ft | 391 kts | 350° |
| 2026-05-06 20:13 | -8.85165 | 144.46797 | 30874 ft | 387 kts | 350° |
| 2026-05-06 20:14 | -8.79875 | 144.45975 | 30878 ft | 384 kts | 350° |
| 2026-05-06 20:14 | -8.74634 | 144.45164 | 30890 ft | 384 kts | 350° |
| 2026-05-06 20:15 | -8.69358 | 144.44350 | 30878 ft | 382 kts | 350° |
| 2026-05-06 20:15 | -8.64085 | 144.43540 | 30443 ft | 389 kts | 351° |
| 2026-05-06 20:16 | -8.61344 | 144.43125 | 29479 ft | 411 kts | 351° |
| 2026-05-06 20:16 | -8.58478 | 144.42670 | 29117 ft | 418 kts | 351° |
| 2026-05-06 20:16 | -8.55595 | 144.42227 | 28947 ft | 421 kts | 351° |
| 2026-05-06 20:16 | -8.52694 | 144.41781 | 28901 ft | 421 kts | 351° |
| 2026-05-06 20:17 | -8.46917 | 144.40888 | 28882 ft | 419 kts | 351° |
| 2026-05-06 20:17 | -8.41170 | 144.39995 | 28879 ft | 417 kts | 351° |
| 2026-05-06 20:18 | -8.35443 | 144.39105 | 28916 ft | 416 kts | 351° |
| 2026-05-06 20:18 | -8.29695 | 144.38214 | 29017 ft | 420 kts | 351° |
| 2026-05-06 20:19 | -8.23902 | 144.37318 | 29075 ft | 423 kts | 351° |
| 2026-05-06 20:19 | -8.18061 | 144.36416 | 29146 ft | 426 kts | 351° |
| 2026-05-06 20:20 | -8.12187 | 144.35509 | 29214 ft | 428 kts | 351° |
| 2026-05-06 20:20 | -7.89724 | 144.32040 | 29366 ft | 438 kts | 351° |
| 2026-05-06 20:21 | -7.65429 | 144.28292 | 29486 ft | 444 kts | 351° |
| 2026-05-06 20:21 | -7.40859 | 144.24671 | 29530 ft | 448 kts | 357° |
| 2026-05-06 20:22 | -7.05991 | 144.23576 | 29632 ft | 450 kts | 358° |
| 2026-05-06 20:22 | -6.55726 | 144.21872 | 29734 ft | 455 kts | 358° |
| 2026-05-06 20:23 | -6.05021 | 144.20166 | 29817 ft | 456 kts | 358° |
| 2026-05-06 20:23 | -5.54160 | 144.18462 | 29869 ft | 458 kts | 358° |
| 2026-05-06 20:24 | -5.03242 | 144.16759 | 29871 ft | 458 kts | 358° |
| 2026-05-06 20:24 | -4.52216 | 144.15045 | 29881 ft | 459 kts | 359° |
| 2026-05-06 20:25 | -4.01067 | 144.13345 | 29921 ft | 460 kts | 359° |
| 2026-05-06 20:25 | -3.58407 | 144.11918 | 29974 ft | 461 kts | 359° |
| 2026-05-06 20:26 | -3.07120 | 144.10215 | 29998 ft | 462 kts | 359° |
| 2026-05-06 20:26 | -2.55616 | 144.08500 | 30057 ft | 464 kts | 359° |
| 2026-05-06 20:27 | -2.03914 | 144.06780 | 30082 ft | 465 kts | 359° |
| 2026-05-06 20:27 | -1.52075 | 144.05059 | 30129 ft | 467 kts | 359° |
| 2026-05-06 20:28 | -1.00027 | 144.03330 | 30174 ft | 469 kts | 359° |
| 2026-05-06 20:28 | -0.47742 | 144.01588 | 30222 ft | 471 kts | 359° |
| 2026-05-06 20:29 | 0.04271 | 143.99825 | 30369 ft | 470 kts | 357° |
| 2026-05-06 20:29 | 0.56370 | 143.95702 | 30611 ft | 463 kts | 356° |
| 2026-05-06 20:30 | 0.82061 | 143.93742 | 30714 ft | 462 kts | 355° |
| 2026-05-06 20:30 | 1.33504 | 143.89807 | 30879 ft | 464 kts | 356° |
| 2026-05-06 20:31 | 1.85024 | 143.85866 | 31031 ft | 464 kts | 355° |
| 2026-05-06 20:31 | 2.10773 | 143.83897 | 31144 ft | 463 kts | 355° |
| 2026-05-06 20:31 | 2.36445 | 143.81932 | 31237 ft | 462 kts | 356° |
| 2026-05-06 20:31 | 2.62057 | 143.79972 | 31347 ft | 462 kts | 356° |
| 2026-05-06 20:32 | 2.87387 | 143.78032 | 31393 ft | 463 kts | 356° |
| 2026-05-06 20:32 | 3.38907 | 143.74082 | 31516 ft | 465 kts | 356° |
| 2026-05-06 20:33 | 3.90640 | 143.70114 | 31630 ft | 465 kts | 356° |
| 2026-05-06 20:33 | 4.42284 | 143.66160 | 31664 ft | 466 kts | 356° |
| 2026-05-06 20:34 | 4.93946 | 143.62173 | 31791 ft | 465 kts | 355° |
| 2026-05-06 20:34 | 5.41088 | 143.55193 | 32015 ft | 461 kts | 351° |
| 2026-05-06 20:34 | 5.53722 | 143.53220 | 32132 ft | 458 kts | 351° |
| 2026-05-06 20:35 | 5.66253 | 143.51237 | 32350 ft | 453 kts | 350° |
| 2026-05-06 20:35 | 5.78638 | 143.49275 | 32562 ft | 449 kts | 350° |
| 2026-05-06 20:35 | 5.90813 | 143.47347 | 32715 ft | 437 kts | 351° |
| 2026-05-06 20:36 | 6.14405 | 143.43606 | 32765 ft | 424 kts | 351° |
| 2026-05-06 20:36 | 6.37438 | 143.39954 | 32765 ft | 415 kts | 350° |
| 2026-05-06 20:37 | 6.60061 | 143.36362 | 32763 ft | 408 kts | 351° |
| 2026-05-06 20:37 | 6.82350 | 143.32825 | 31776 ft | 413 kts | 351° |
| 2026-05-06 20:38 | 7.05041 | 143.29215 | 31739 ft | 411 kts | 351° |
| 2026-05-06 20:38 | 7.27525 | 143.25635 | 31759 ft | 408 kts | 351° |
| 2026-05-06 20:39 | 7.49762 | 143.22093 | 31796 ft | 406 kts | 351° |
| 2026-05-06 20:39 | 7.72601 | 143.18453 | 31835 ft | 426 kts | 351° |
| 2026-05-06 20:40 | 7.96558 | 143.14626 | 31837 ft | 443 kts | 351° |
| 2026-05-06 20:40 | 8.21261 | 143.10674 | 31815 ft | 454 kts | 351° |
| 2026-05-06 20:41 | 8.46036 | 143.06707 | 31768 ft | 443 kts | 351° |
| 2026-05-06 20:41 | 8.69973 | 143.02869 | 31782 ft | 431 kts | 351° |
| 2026-05-06 20:42 | 8.93468 | 142.99098 | 31803 ft | 424 kts | 351° |
| 2026-05-06 20:42 | 9.16673 | 142.95368 | 31848 ft | 420 kts | 351° |
| 2026-05-06 20:43 | 9.39718 | 142.91658 | 31821 ft | 418 kts | 351° |
| 2026-05-06 20:43 | 9.62652 | 142.87962 | 31825 ft | 417 kts | 351° |
| 2026-05-06 20:44 | 9.85514 | 142.84270 | 31853 ft | 415 kts | 350° |
| 2026-05-06 20:44 | 9.96710 | 142.81308 | 31897 ft | 418 kts | 338° |
| 2026-05-06 20:44 | 10.07510 | 142.76956 | 31822 ft | 417 kts | 338° |
| 2026-05-06 20:45 | 10.29098 | 142.68343 | 31835 ft | 416 kts | 339° |
| 2026-05-06 20:45 | 10.50694 | 142.59728 | 31877 ft | 419 kts | 339° |
| 2026-05-06 20:46 | 10.72822 | 142.50888 | 31959 ft | 451 kts | 339° |
| 2026-05-06 20:46 | 10.84897 | 142.46059 | 31881 ft | 475 kts | 339° |
| 2026-05-06 20:46 | 10.96976 | 142.41223 | 31832 ft | 463 kts | 339° |
| 2026-05-06 20:46 | 11.09129 | 142.36349 | 31904 ft | 474 kts | 339° |
| 2026-05-06 20:47 | 11.21300 | 142.31469 | 31859 ft | 470 kts | 339° |
| 2026-05-06 20:47 | 11.45800 | 142.21629 | 31887 ft | 476 kts | 338° |
| 2026-05-06 20:47 | 11.58270 | 142.16612 | 31938 ft | 487 kts | 338° |
| 2026-05-06 20:48 | 11.70962 | 142.11505 | 31860 ft | 489 kts | 338° |
| 2026-05-06 20:48 | 11.95998 | 142.01410 | 31881 ft | 479 kts | 338° |
| 2026-05-06 20:49 | 12.20952 | 141.91329 | 31906 ft | 487 kts | 338° |
| 2026-05-06 20:49 | 12.46141 | 141.81132 | 31879 ft | 486 kts | 338° |
| 2026-05-06 20:50 | 12.71014 | 141.71041 | 31895 ft | 481 kts | 338° |
| 2026-05-06 20:50 | 12.96072 | 141.60855 | 31893 ft | 488 kts | 338° |
| 2026-05-06 20:51 | 13.21092 | 141.50663 | 31892 ft | 480 kts | 338° |
| 2026-05-06 20:51 | 13.45884 | 141.40540 | 31943 ft | 482 kts | 337° |
| 2026-05-06 20:52 | 13.70820 | 141.30336 | 31923 ft | 487 kts | 338° |
| 2026-05-06 20:52 | 14.08740 | 141.14775 | 31884 ft | 477 kts | 337° |
| 2026-05-06 20:53 | 14.58077 | 140.94441 | 32007 ft | 482 kts | 338° |
| 2026-05-06 20:53 | 15.07634 | 140.72638 | 31959 ft | 482 kts | 334° |
| 2026-05-06 20:54 | 15.56352 | 140.49495 | 31951 ft | 480 kts | 335° |
| 2026-05-06 20:54 | 16.04899 | 140.26346 | 31967 ft | 480 kts | 335° |
| 2026-05-06 20:54 | 16.29195 | 140.14713 | 32163 ft | 488 kts | 335° |
| 2026-05-06 20:55 | 16.53888 | 140.02878 | 34385 ft | 484 kts | 334° |
| 2026-05-06 20:55 | 16.78360 | 139.91081 | 35792 ft | 488 kts | 333° |
| 2026-05-06 20:55 | 17.03083 | 139.79133 | 36033 ft | 489 kts | 333° |
| 2026-05-06 20:55 | 17.27572 | 139.67275 | 35925 ft | 479 kts | 333° |
| 2026-05-06 20:56 | 17.51371 | 139.55717 | 35875 ft | 465 kts | 333° |
| 2026-05-06 20:56 | 17.97708 | 139.33109 | 36050 ft | 461 kts | 332° |
| 2026-05-06 20:57 | 18.45143 | 139.09830 | 36047 ft | 477 kts | 333° |
| 2026-05-06 20:57 | 18.92953 | 138.86229 | 35921 ft | 468 kts | 332° |
| 2026-05-06 20:58 | 19.39667 | 138.63023 | 36044 ft | 465 kts | 332° |
| 2026-05-06 20:58 | 19.87315 | 138.39198 | 36082 ft | 481 kts | 332° |
| 2026-05-06 20:59 | 20.35494 | 138.14947 | 35947 ft | 473 kts | 332° |
| 2026-05-06 20:59 | 20.82498 | 137.91116 | 36053 ft | 468 kts | 332° |
| 2026-05-06 21:00 | 21.28553 | 137.64818 | 36142 ft | 480 kts | 327° |
| 2026-05-06 21:00 | 21.75042 | 137.36444 | 35992 ft | 476 kts | 327° |
| 2026-05-06 21:01 | 22.20327 | 137.08559 | 36028 ft | 467 kts | 326° |
| 2026-05-06 21:01 | 22.66007 | 136.80212 | 36130 ft | 481 kts | 326° |
| 2026-05-06 21:02 | 23.12744 | 136.51000 | 36014 ft | 483 kts | 325° |
| 2026-05-06 21:02 | 23.58593 | 136.22089 | 36001 ft | 472 kts | 324° |
| 2026-05-06 21:02 | 23.81377 | 136.07634 | 36106 ft | 476 kts | 324° |
| 2026-05-06 21:03 | 24.04504 | 135.92906 | 36133 ft | 485 kts | 324° |
| 2026-05-06 21:03 | 24.51577 | 135.62735 | 36020 ft | 491 kts | 324° |
| 2026-05-06 21:04 | 24.98139 | 135.32635 | 35996 ft | 479 kts | 323° |
| 2026-05-06 21:04 | 25.44363 | 135.02465 | 36107 ft | 490 kts | 323° |
| 2026-05-06 21:05 | 25.89691 | 134.68563 | 36045 ft | 495 kts | 320° |
| 2026-05-06 21:05 | 26.34656 | 134.34083 | 35991 ft | 486 kts | 320° |
| 2026-05-06 21:06 | 26.78900 | 133.99825 | 36007 ft | 485 kts | 321° |
| 2026-05-06 21:06 | 27.23858 | 133.64666 | 36104 ft | 500 kts | 321° |
| 2026-05-06 21:07 | 27.69781 | 133.28371 | 36071 ft | 511 kts | 321° |
| 2026-05-06 21:07 | 27.93169 | 133.09759 | 36192 ft | 521 kts | 321° |
| 2026-05-06 21:07 | 28.16810 | 132.90861 | 35974 ft | 516 kts | 321° |
| 2026-05-06 21:07 | 28.39945 | 132.72248 | 35785 ft | 504 kts | 321° |
| 2026-05-06 21:08 | 28.62529 | 132.54000 | 35959 ft | 495 kts | 321° |
| 2026-05-06 21:08 | 28.85022 | 132.35693 | 36112 ft | 500 kts | 321° |
| 2026-05-06 21:08 | 29.07857 | 132.17018 | 36090 ft | 505 kts | 321° |
| 2026-05-06 21:09 | 29.52401 | 131.80298 | 35896 ft | 476 kts | 322° |
| 2026-05-06 21:09 | 29.71255 | 131.65641 | 35957 ft | 461 kts | 327° |
| 2026-05-06 21:09 | 29.92833 | 131.49718 | 36088 ft | 459 kts | 327° |
| 2026-05-06 21:09 | 30.09592 | 131.27873 | 36159 ft | 464 kts | 301° |
| 2026-05-06 21:10 | 30.23058 | 131.02380 | 36045 ft | 465 kts | 304° |
| 2026-05-06 21:10 | 30.50509 | 130.51402 | 35991 ft | 466 kts | 303° |
| 2026-05-06 21:11 | 30.77732 | 130.00142 | 36028 ft | 466 kts | 302° |
| 2026-05-06 21:11 | 31.04743 | 129.48589 | 36029 ft | 466 kts | 301° |
| 2026-05-06 21:12 | 31.31572 | 128.96686 | 36024 ft | 467 kts | 300° |
| 2026-05-06 21:12 | 31.58201 | 128.44468 | 36025 ft | 466 kts | 299° |
| 2026-05-06 21:13 | 31.84520 | 127.92162 | 36031 ft | 464 kts | 298° |
| 2026-05-06 21:13 | 32.10480 | 127.39817 | 36049 ft | 460 kts | 297° |
| 2026-05-06 21:14 | 32.24819 | 126.86339 | 36207 ft | 438 kts | 247° |
| 2026-05-06 21:14 | 32.17994 | 126.58304 | 36179 ft | 453 kts | 256° |
| 2026-05-06 21:14 | 32.11648 | 126.29312 | 36008 ft | 457 kts | 257° |
| 2026-05-06 21:15 | 32.01401 | 125.82000 | 35915 ft | 438 kts | 257° |
| 2026-05-06 21:15 | 31.89014 | 125.26484 | 36083 ft | 445 kts | 256° |
| 2026-05-06 21:16 | 31.79008 | 124.81655 | 35996 ft | 449 kts | 256° |
| 2026-05-06 21:16 | 31.77488 | 124.74600 | 35996 ft | 442 kts | 256° |
| 2026-05-06 21:17 | 31.75967 | 124.67604 | 36004 ft | 442 kts | 256° |
| 2026-05-06 21:17 | 31.74438 | 124.60612 | 36013 ft | 442 kts | 256° |
| 2026-05-06 21:18 | 31.72901 | 124.53609 | 36000 ft | 443 kts | 256° |
| 2026-05-06 21:18 | 31.71360 | 124.46606 | 36009 ft | 443 kts | 256° |
| 2026-05-06 21:19 | 31.69815 | 124.39598 | 36011 ft | 444 kts | 256° |
| 2026-05-06 21:19 | 31.68263 | 124.32584 | 36007 ft | 444 kts | 256° |
| 2026-05-06 21:20 | 31.66707 | 124.25569 | 35987 ft | 444 kts | 256° |
| 2026-05-06 21:20 | 31.65149 | 124.18563 | 36002 ft | 444 kts | 256° |
| 2026-05-06 21:21 | 31.63587 | 124.11559 | 35995 ft | 444 kts | 256° |
| 2026-05-06 21:21 | 31.62022 | 124.04559 | 35991 ft | 444 kts | 256° |
| 2026-05-06 21:22 | 31.60457 | 123.97557 | 35998 ft | 444 kts | 256° |
| 2026-05-06 21:22 | 31.58936 | 123.90595 | 36002 ft | 444 kts | 256° |
| 2026-05-06 21:23 | 31.57397 | 123.83535 | 35988 ft | 444 kts | 256° |
| 2026-05-06 21:23 | 31.55873 | 123.76582 | 35987 ft | 441 kts | 256° |
| 2026-05-06 21:24 | 31.54373 | 123.69768 | 35507 ft | 424 kts | 256° |
| 2026-05-06 21:24 | 31.53635 | 123.66422 | 34899 ft | 423 kts | 256° |
| 2026-05-06 21:24 | 31.52896 | 123.63075 | 34170 ft | 426 kts | 255° |
| 2026-05-06 21:24 | 31.52146 | 123.59685 | 33317 ft | 435 kts | 255° |
| 2026-05-06 21:25 | 31.51374 | 123.56198 | 32448 ft | 448 kts | 256° |
| 2026-05-06 21:25 | 31.50584 | 123.52632 | 31534 ft | 455 kts | 256° |
| 2026-05-06 21:25 | 31.49789 | 123.49036 | 30633 ft | 456 kts | 257° |
| 2026-05-06 21:25 | 31.49066 | 123.45454 | 29985 ft | 449 kts | 258° |
| 2026-05-06 21:26 | 31.48401 | 123.41905 | 29244 ft | 443 kts | 258° |
| 2026-05-06 21:26 | 31.47760 | 123.38402 | 28537 ft | 436 kts | 258° |
| 2026-05-06 21:26 | 31.47128 | 123.34956 | 27923 ft | 429 kts | 258° |
| 2026-05-06 21:26 | 31.46498 | 123.31567 | 27317 ft | 423 kts | 258° |
| 2026-05-06 21:27 | 31.45870 | 123.28227 | 26729 ft | 417 kts | 257° |
| 2026-05-06 21:27 | 31.45246 | 123.24939 | 26150 ft | 411 kts | 257° |
| 2026-05-06 21:27 | 31.44625 | 123.21688 | 25580 ft | 407 kts | 257° |
| 2026-05-06 21:27 | 31.44011 | 123.18476 | 25022 ft | 402 kts | 257° |
| 2026-05-06 21:28 | 31.43401 | 123.15291 | 24468 ft | 399 kts | 257° |
| 2026-05-06 21:28 | 31.42795 | 123.12135 | 23909 ft | 396 kts | 257° |
| 2026-05-06 21:28 | 31.42193 | 123.09005 | 23319 ft | 393 kts | 257° |
| 2026-05-06 21:28 | 31.41596 | 123.05897 | 22718 ft | 389 kts | 257° |
| 2026-05-06 21:29 | 31.41004 | 123.02822 | 22166 ft | 385 kts | 257° |
| 2026-05-06 21:29 | 31.40419 | 122.99787 | 21626 ft | 381 kts | 257° |
| 2026-05-06 21:29 | 31.39837 | 122.96771 | 21118 ft | 379 kts | 257° |
| 2026-05-06 21:29 | 31.39254 | 122.93745 | 20597 ft | 384 kts | 257° |
| 2026-05-06 21:30 | 31.38657 | 122.90655 | 20072 ft | 393 kts | 257° |
| 2026-05-06 21:30 | 31.38051 | 122.87535 | 19534 ft | 392 kts | 257° |
| 2026-05-06 21:30 | 31.37451 | 122.84443 | 18993 ft | 388 kts | 257° |
| 2026-05-06 21:30 | 31.36869 | 122.81382 | 18457 ft | 383 kts | 258° |
| 2026-05-06 21:31 | 31.36537 | 122.78307 | 17894 ft | 379 kts | 265° |
| 2026-05-06 21:31 | 31.36452 | 122.75243 | 17345 ft | 375 kts | 269° |
| 2026-05-06 21:31 | 31.36574 | 122.72256 | 16830 ft | 370 kts | 274° |
| 2026-05-06 21:31 | 31.36857 | 122.69284 | 16327 ft | 365 kts | 275° |
| 2026-05-06 21:32 | 31.37154 | 122.66347 | 15837 ft | 361 kts | 275° |
| 2026-05-06 21:32 | 31.37739 | 122.60572 | 14885 ft | 357 kts | 275° |
| 2026-05-06 21:32 | 31.38027 | 122.57678 | 14413 ft | 361 kts | 275° |
| 2026-05-06 21:33 | 31.38316 | 122.54722 | 13909 ft | 369 kts | 275° |
| 2026-05-06 21:33 | 31.38607 | 122.51732 | 13352 ft | 369 kts | 275° |
| 2026-05-06 21:33 | 31.38894 | 122.48768 | 12813 ft | 364 kts | 275° |
| 2026-05-06 21:33 | 31.39176 | 122.45847 | 12317 ft | 358 kts | 275° |
| 2026-05-06 21:34 | 31.39452 | 122.42980 | 11835 ft | 352 kts | 275° |
| 2026-05-06 21:34 | 31.39723 | 122.40154 | 11359 ft | 346 kts | 275° |
| 2026-05-06 21:34 | 31.39988 | 122.37379 | 11005 ft | 338 kts | 275° |
| 2026-05-06 21:34 | 31.40244 | 122.34698 | 10867 ft | 325 kts | 275° |
| 2026-05-06 21:35 | 31.40490 | 122.32125 | 10713 ft | 312 kts | 275° |
| 2026-05-06 21:35 | 31.40725 | 122.29653 | 10585 ft | 299 kts | 275° |
| 2026-05-06 21:35 | 31.40949 | 122.27281 | 10444 ft | 287 kts | 275° |
| 2026-05-06 21:35 | 31.41164 | 122.25010 | 10327 ft | 275 kts | 275° |
| 2026-05-06 21:36 | 31.41369 | 122.22832 | 10226 ft | 263 kts | 275° |
| 2026-05-06 21:36 | 31.41566 | 122.20743 | 10159 ft | 259 kts | 275° |
| 2026-05-06 21:36 | 31.41764 | 122.18631 | 10076 ft | 263 kts | 275° |
| 2026-05-06 21:36 | 31.41965 | 122.16476 | 9823 ft | 271 kts | 276° |
| 2026-05-06 21:37 | 31.42171 | 122.14273 | 9514 ft | 273 kts | 275° |
| 2026-05-06 21:37 | 31.42376 | 122.12083 | 9178 ft | 268 kts | 275° |
| 2026-05-06 21:37 | 31.42577 | 122.09928 | 8856 ft | 264 kts | 275° |
| 2026-05-06 21:37 | 31.42774 | 122.07810 | 8544 ft | 259 kts | 275° |
| 2026-05-06 21:38 | 31.42967 | 122.05732 | 8243 ft | 255 kts | 275° |
| 2026-05-06 21:38 | 31.43158 | 122.03674 | 7944 ft | 255 kts | 275° |
| 2026-05-06 21:38 | 31.43350 | 122.01594 | 7656 ft | 260 kts | 275° |
| 2026-05-06 21:38 | 31.43546 | 121.99476 | 7354 ft | 263 kts | 275° |
| 2026-05-06 21:39 | 31.43741 | 121.97358 | 7031 ft | 259 kts | 275° |
| 2026-05-06 21:39 | 31.43933 | 121.95272 | 6729 ft | 255 kts | 275° |
| 2026-05-06 21:39 | 31.44122 | 121.93225 | 6431 ft | 251 kts | 275° |
| 2026-05-06 21:39 | 31.44307 | 121.91215 | 6129 ft | 246 kts | 275° |
| 2026-05-06 21:40 | 31.44488 | 121.89230 | 5830 ft | 246 kts | 276° |
| 2026-05-06 21:40 | 31.44673 | 121.87206 | 5547 ft | 253 kts | 276° |
| 2026-05-06 21:40 | 31.44847 | 121.85142 | 5236 ft | 254 kts | 271° |
| 2026-05-06 21:40 | 31.44490 | 121.83151 | 4947 ft | 253 kts | 244° |
| 2026-05-06 21:41 | 31.43470 | 121.81511 | 4637 ft | 253 kts | 230° |
| 2026-05-06 21:41 | 31.42303 | 121.79978 | 4399 ft | 248 kts | 230° |
| 2026-05-06 21:41 | 31.41182 | 121.78492 | 4271 ft | 241 kts | 230° |
| 2026-05-06 21:41 | 31.40087 | 121.77039 | 4079 ft | 235 kts | 230° |
| 2026-05-06 21:42 | 31.39016 | 121.75617 | 3809 ft | 230 kts | 230° |
| 2026-05-06 21:42 | 31.37969 | 121.74224 | 3520 ft | 226 kts | 230° |
| 2026-05-06 21:42 | 31.36944 | 121.72864 | 3248 ft | 219 kts | 227° |
| 2026-05-06 21:42 | 31.35712 | 121.71945 | 3055 ft | 209 kts | 193° |
| 2026-05-06 21:43 | 31.34253 | 121.72019 | 2993 ft | 215 kts | 170° |
| 2026-05-06 21:43 | 31.32778 | 121.72377 | 2969 ft | 217 kts | 169° |
| 2026-05-06 21:43 | 31.31329 | 121.72837 | 2953 ft | 215 kts | 165° |
| 2026-05-06 21:43 | 31.29900 | 121.73367 | 2796 ft | 219 kts | 164° |
| 2026-05-06 21:44 | 31.28442 | 121.73924 | 2495 ft | 218 kts | 164° |
| 2026-05-06 21:44 | 31.27031 | 121.74463 | 2265 ft | 206 kts | 164° |
| 2026-05-06 21:44 | 31.25722 | 121.74961 | 1963 ft | 190 kts | 164° |
| 2026-05-06 21:44 | 31.24508 | 121.75422 | 1727 ft | 175 kts | 164° |
| 2026-05-06 21:45 | 31.23406 | 121.75839 | 1527 ft | 158 kts | 165° |
| 2026-05-06 21:45 | 31.22403 | 121.76218 | 1284 ft | 142 kts | 163° |
| 2026-05-06 21:45 | 31.21475 | 121.76571 | 1079 ft | 140 kts | 164° |
| 2026-05-06 21:45 | 31.20549 | 121.76925 | 869 ft | 141 kts | 162° |
| 2026-05-06 21:46 | 31.19626 | 121.77279 | 717 ft | 139 kts | 163° |
| 2026-05-06 21:46 | 31.18718 | 121.77622 | 542 ft | 138 kts | 163° |
| 2026-05-06 21:46 | 31.17789 | 121.77974 | 369 ft | 142 kts | 162° |
| 2026-05-06 21:46 | 31.16848 | 121.78329 | 210 ft | 143 kts | 162° |
| 2026-05-06 21:47 | 31.15920 | 121.78679 | 45 ft | 137 kts | 162° |
| 2026-05-06 21:47 | 31.15084 | 121.79001 | 30 ft | 114 kts | 162° |
| 2026-05-06 21:47 | 31.14456 | 121.79230 | 28 ft | 72 kts | 162° |
| 2026-05-06 21:47 | 31.14165 | 121.79372 | 31 ft | 36 kts | 138° |
| 2026-05-06 21:48 | 31.14086 | 121.79466 | 30 ft | 7 kts | 132° |
| 2026-05-06 21:48 | 31.14055 | 121.79509 | 26 ft | 7 kts | 125° |
| 2026-05-06 21:48 | 31.14057 | 121.79563 | 26 ft | 7 kts | 56° |
| 2026-05-06 21:48 | 31.14110 | 121.79581 | 27 ft | 9 kts | 355° |
| 2026-05-06 21:49 | 31.14178 | 121.79553 | 26 ft | 12 kts | 341° |
| 2026-05-06 21:49 | 31.14270 | 121.79518 | 27 ft | 15 kts | 342° |
| 2026-05-06 21:49 | 31.14373 | 121.79480 | 27 ft | 16 kts | 342° |
| 2026-05-06 21:49 | 31.14482 | 121.79438 | 27 ft | 17 kts | 344° |
| 2026-05-06 21:50 | 31.14582 | 121.79399 | 28 ft | 15 kts | 341° |
| 2026-05-06 21:50 | 31.14681 | 121.79363 | 27 ft | 15 kts | 341° |
| 2026-05-06 21:50 | 31.14780 | 121.79325 | 28 ft | 15 kts | 342° |
| 2026-05-06 21:50 | 31.14884 | 121.79286 | 28 ft | 16 kts | 340° |
| 2026-05-06 21:51 | 31.14989 | 121.79246 | 28 ft | 16 kts | 343° |
| 2026-05-06 21:51 | 31.15105 | 121.79205 | 27 ft | 18 kts | 343° |
| 2026-05-06 21:51 | 31.15224 | 121.79158 | 27 ft | 18 kts | 343° |
| 2026-05-06 21:51 | 31.15343 | 121.79113 | 27 ft | 18 kts | 342° |
| 2026-05-06 21:52 | 31.15460 | 121.79068 | 27 ft | 16 kts | 342° |
| 2026-05-06 21:52 | 31.15564 | 121.79029 | 26 ft | 11 kts | 341° |
| 2026-05-06 21:52 | 31.15627 | 121.79066 | 27 ft | 12 kts | 56° |
| 2026-05-06 21:52 | 31.15697 | 121.79089 | 27 ft | 11 kts | 342° |
| 2026-05-06 21:53 | 31.15772 | 121.79060 | 27 ft | 12 kts | 342° |
| 2026-05-06 21:53 | 31.15854 | 121.79029 | 27 ft | 9 kts | 342° |
| 2026-05-06 21:53 | 31.15913 | 121.79034 | 27 ft | 9 kts | 37° |
| 2026-05-06 21:53 | 31.15938 | 121.79098 | 27 ft | 1 kts | 72° |
| 2026-05-06 21:54 | 31.15940 | 121.79106 | 27 ft | 0 kts | 71° |